sensor_id;sensor_type;location;lat;lon;timestamp;pressure;altitude;pressure_sealevel;temperature;humidity
10652;BME280;5374;42.742;23.266;2023-07-31T00:00:05;95065.22;;;22.28;94.78
10652;BME280;5374;42.742;23.266;2023-07-31T00:02:57;95047.56;;;22.10;95.16
10652;BME280;5374;42.742;23.266;2023-07-31T00:05:58;95087.53;;;22.25;95.38
10652;BME280;5374;42.742;23.266;2023-07-31T00:08:53;95038.91;;;21.96;95.32
10652;BME280;5374;42.742;23.266;2023-07-31T00:11:54;95058.84;;;22.12;95.67
10652;BME280;5374;42.742;23.266;2023-07-31T00:14:43;95035.63;;;21.90;95.98
10652;BME280;5374;42.742;23.266;2023-07-31T00:17:30;95019.81;;;21.80;96.33
10652;BME280;5374;42.742;23.266;2023-07-31T00:20:21;95046.19;;;22.04;96.98
10652;BME280;5374;42.742;23.266;2023-07-31T00:23:12;95040.66;;;22.00;99.95
10652;BME280;5374;42.742;23.266;2023-07-31T00:25:59;95023.59;;;22.00;100.00
10652;BME280;5374;42.742;23.266;2023-07-31T00:28:47;95036.28;;;22.08;100.00
10652;BME280;5374;42.742;23.266;2023-07-31T00:31:34;95029.19;;;22.03;100.00
10652;BME280;5374;42.742;23.266;2023-07-31T00:34:21;94999.16;;;21.75;100.00
10652;BME280;5374;42.742;23.266;2023-07-31T00:37:08;95019.31;;;21.99;100.00
10652;BME280;5374;42.742;23.266;2023-07-31T00:39:56;95021.72;;;22.00;100.00
10652;BME280;5374;42.742;23.266;2023-07-31T00:42:43;95038.75;;;22.01;100.00
10652;BME280;5374;42.742;23.266;2023-07-31T00:45:31;95028.75;;;21.93;100.00
10652;BME280;5374;42.742;23.266;2023-07-31T00:48:19;95039.03;;;21.99;100.00
10652;BME280;5374;42.742;23.266;2023-07-31T00:51:07;95030.09;;;21.87;100.00
10652;BME280;5374;42.742;23.266;2023-07-31T00:53:55;95042.84;;;21.98;100.00
10652;BME280;5374;42.742;23.266;2023-07-31T00:56:45;95052.88;;;21.98;100.00
10652;BME280;5374;42.742;23.266;2023-07-31T00:59:34;95039.03;;;21.99;100.00
10652;BME280;5374;42.742;23.266;2023-07-31T01:02:21;95032.84;;;21.99;100.00
10652;BME280;5374;42.742;23.266;2023-07-31T01:05:08;94975.28;;;21.44;100.00
10652;BME280;5374;42.742;23.266;2023-07-31T01:08:02;95051.59;;;22.04;100.00
10652;BME280;5374;42.742;23.266;2023-07-31T01:10:56;95019.59;;;21.85;100.00
10652;BME280;5374;42.742;23.266;2023-07-31T01:13:47;95037.78;;;21.97;100.00
10652;BME280;5374;42.742;23.266;2023-07-31T01:16:35;95011.56;;;21.76;100.00
10652;BME280;5374;42.742;23.266;2023-07-31T01:19:24;95010.63;;;21.72;100.00
10652;BME280;5374;42.742;23.266;2023-07-31T01:22:24;94986.88;;;21.45;100.00
10652;BME280;5374;42.742;23.266;2023-07-31T01:25:21;95011.03;;;21.62;100.00
10652;BME280;5374;42.742;23.266;2023-07-31T01:28:20;95009.13;;;21.63;100.00
10652;BME280;5374;42.742;23.266;2023-07-31T01:31:16;95002.94;;;21.62;100.00
10652;BME280;5374;42.742;23.266;2023-07-31T01:34:06;95011.50;;;21.64;100.00
10652;BME280;5374;42.742;23.266;2023-07-31T01:36:55;95026.59;;;21.65;100.00
10652;BME280;5374;42.742;23.266;2023-07-31T01:39:43;95007.94;;;21.52;100.00
10652;BME280;5374;42.742;23.266;2023-07-31T01:42:31;94996.94;;;21.36;100.00
10652;BME280;5374;42.742;23.266;2023-07-31T01:45:19;95009.28;;;21.45;100.00
10652;BME280;5374;42.742;23.266;2023-07-31T01:48:06;94967.69;;;21.08;100.00
10652;BME280;5374;42.742;23.266;2023-07-31T01:50:53;94994.59;;;21.26;100.00
10652;BME280;5374;42.742;23.266;2023-07-31T01:53:41;95014.25;;;21.35;100.00
10652;BME280;5374;42.742;23.266;2023-07-31T01:56:28;95002.59;;;21.13;100.00
10652;BME280;5374;42.742;23.266;2023-07-31T01:59:15;95028.13;;;21.25;100.00
10652;BME280;5374;42.742;23.266;2023-07-31T02:02:04;95011.19;;;21.15;100.00
10652;BME280;5374;42.742;23.266;2023-07-31T02:04:51;95032.41;;;21.26;100.00
10652;BME280;5374;42.742;23.266;2023-07-31T02:07:39;95007.72;;;21.06;100.00
10652;BME280;5374;42.742;23.266;2023-07-31T02:10:26;95015.50;;;21.08;100.00
10652;BME280;5374;42.742;23.266;2023-07-31T02:13:13;95032.31;;;21.22;100.00
10652;BME280;5374;42.742;23.266;2023-07-31T02:16:00;95019.28;;;21.15;100.00
10652;BME280;5374;42.742;23.266;2023-07-31T02:18:48;95029.72;;;21.26;100.00
10652;BME280;5374;42.742;23.266;2023-07-31T02:21:35;95035.59;;;21.28;100.00
10652;BME280;5374;42.742;23.266;2023-07-31T02:24:23;95022.75;;;21.16;100.00
10652;BME280;5374;42.742;23.266;2023-07-31T02:27:10;95008.00;;;21.13;100.00
10652;BME280;5374;42.742;23.266;2023-07-31T02:29:57;95020.38;;;21.23;100.00
10652;BME280;5374;42.742;23.266;2023-07-31T02:32:45;94985.88;;;20.99;100.00
10652;BME280;5374;42.742;23.266;2023-07-31T02:35:34;94977.94;;;20.94;100.00
10652;BME280;5374;42.742;23.266;2023-07-31T02:38:21;95043.47;;;21.41;100.00
10652;BME280;5374;42.742;23.266;2023-07-31T02:41:08;95034.88;;;21.39;100.00
10652;BME280;5374;42.742;23.266;2023-07-31T02:43:56;95001.03;;;21.12;100.00
10652;BME280;5374;42.742;23.266;2023-07-31T02:46:43;95003.06;;;21.15;100.00
10652;BME280;5374;42.742;23.266;2023-07-31T02:49:30;95044.63;;;21.32;100.00
10652;BME280;5374;42.742;23.266;2023-07-31T02:52:18;95031.13;;;21.32;100.00
10652;BME280;5374;42.742;23.266;2023-07-31T02:55:06;95053.16;;;21.42;100.00
10652;BME280;5374;42.742;23.266;2023-07-31T02:57:53;95037.44;;;21.36;100.00
10652;BME280;5374;42.742;23.266;2023-07-31T03:00:42;95066.00;;;21.45;100.00
10652;BME280;5374;42.742;23.266;2023-07-31T03:03:29;95049.03;;;21.36;100.00
10652;BME280;5374;42.742;23.266;2023-07-31T03:06:16;95045.41;;;21.32;100.00
10652;BME280;5374;42.742;23.266;2023-07-31T03:09:05;95071.34;;;21.54;100.00
10652;BME280;5374;42.742;23.266;2023-07-31T03:11:52;95042.00;;;21.44;100.00
10652;BME280;5374;42.742;23.266;2023-07-31T03:14:39;95059.09;;;21.57;100.00
10652;BME280;5374;42.742;23.266;2023-07-31T03:17:26;95038.06;;;21.41;100.00
10652;BME280;5374;42.742;23.266;2023-07-31T03:20:14;95037.72;;;21.43;100.00
10652;BME280;5374;42.742;23.266;2023-07-31T03:23:01;95006.88;;;21.23;100.00
10652;BME280;5374;42.742;23.266;2023-07-31T03:26:01;95014.44;;;21.30;100.00
10652;BME280;5374;42.742;23.266;2023-07-31T03:28:48;95000.69;;;21.14;100.00
10652;BME280;5374;42.742;23.266;2023-07-31T03:31:39;95024.31;;;21.26;100.00
10652;BME280;5374;42.742;23.266;2023-07-31T03:34:26;95074.66;;;21.60;100.00
10652;BME280;5374;42.742;23.266;2023-07-31T03:37:13;95079.06;;;21.64;100.00
10652;BME280;5374;42.742;23.266;2023-07-31T03:40:00;95050.31;;;21.39;100.00
10652;BME280;5374;42.742;23.266;2023-07-31T03:42:49;95086.63;;;21.71;100.00
10652;BME280;5374;42.742;23.266;2023-07-31T03:45:36;95103.66;;;21.71;100.00
10652;BME280;5374;42.742;23.266;2023-07-31T03:48:24;95076.88;;;21.58;100.00
10652;BME280;5374;42.742;23.266;2023-07-31T03:51:11;95049.19;;;21.40;100.00
10652;BME280;5374;42.742;23.266;2023-07-31T03:53:59;95034.00;;;21.27;100.00
10652;BME280;5374;42.742;23.266;2023-07-31T03:56:54;95071.63;;;21.61;100.00
10652;BME280;5374;42.742;23.266;2023-07-31T03:59:43;95105.94;;;21.90;100.00
10652;BME280;5374;42.742;23.266;2023-07-31T04:02:30;95072.41;;;21.62;100.00
10652;BME280;5374;42.742;23.266;2023-07-31T04:05:17;95096.75;;;21.82;100.00
10652;BME280;5374;42.742;23.266;2023-07-31T04:08:04;95096.94;;;21.77;100.00
10652;BME280;5374;42.742;23.266;2023-07-31T04:10:51;95082.31;;;21.78;100.00
10652;BME280;5374;42.742;23.266;2023-07-31T04:13:39;95106.00;;;22.02;100.00
10652;BME280;5374;42.742;23.266;2023-07-31T04:16:27;95098.03;;;22.06;100.00
10652;BME280;5374;42.742;23.266;2023-07-31T04:19:15;95095.47;;;22.09;100.00
10652;BME280;5374;42.742;23.266;2023-07-31T04:22:02;95089.47;;;22.04;100.00
10652;BME280;5374;42.742;23.266;2023-07-31T04:24:49;95108.38;;;22.25;100.00
10652;BME280;5374;42.742;23.266;2023-07-31T04:27:36;95085.78;;;22.08;100.00
10652;BME280;5374;42.742;23.266;2023-07-31T04:30:24;95108.56;;;22.20;100.00
10652;BME280;5374;42.742;23.266;2023-07-31T04:33:13;95102.09;;;22.33;100.00
10652;BME280;5374;42.742;23.266;2023-07-31T04:36:00;95092.78;;;22.42;100.00
10652;BME280;5374;42.742;23.266;2023-07-31T04:38:47;95092.91;;;22.79;100.00
10652;BME280;5374;42.742;23.266;2023-07-31T04:41:35;95071.97;;;23.37;100.00
10652;BME280;5374;42.742;23.266;2023-07-31T04:44:25;95061.47;;;24.83;97.50
10652;BME280;5374;42.742;23.266;2023-07-31T04:47:22;95005.91;;;26.21;75.29
10652;BME280;5374;42.742;23.266;2023-07-31T04:50:11;95081.69;;;28.21;65.22
10652;BME280;5374;42.742;23.266;2023-07-31T04:52:58;95053.22;;;29.37;59.47
10652;BME280;5374;42.742;23.266;2023-07-31T04:56:02;95101.78;;;30.71;54.29
10652;BME280;5374;42.742;23.266;2023-07-31T04:58:51;95112.88;;;32.27;50.29
10652;BME280;5374;42.742;23.266;2023-07-31T05:01:40;95099.19;;;33.00;46.96
10652;BME280;5374;42.742;23.266;2023-07-31T05:04:28;95128.72;;;34.07;44.37
10652;BME280;5374;42.742;23.266;2023-07-31T05:07:17;95099.34;;;34.64;42.35
10652;BME280;5374;42.742;23.266;2023-07-31T05:10:05;95117.91;;;34.60;41.71
10652;BME280;5374;42.742;23.266;2023-07-31T05:12:52;95091.00;;;33.52;43.26
10652;BME280;5374;42.742;23.266;2023-07-31T05:15:41;95113.63;;;32.10;46.62
10652;BME280;5374;42.742;23.266;2023-07-31T05:18:28;95086.66;;;30.22;50.39
10652;BME280;5374;42.742;23.266;2023-07-31T05:21:15;95100.03;;;29.28;53.79
10652;BME280;5374;42.742;23.266;2023-07-31T05:24:04;95113.13;;;29.05;55.78
10652;BME280;5374;42.742;23.266;2023-07-31T05:26:52;95113.97;;;31.02;50.04
10652;BME280;5374;42.742;23.266;2023-07-31T05:29:40;95083.69;;;32.54;45.78
10652;BME280;5374;42.742;23.266;2023-07-31T05:32:27;95080.69;;;34.42;41.08
10652;BME280;5374;42.742;23.266;2023-07-31T05:35:15;95118.81;;;35.15;39.99
10652;BME280;5374;42.742;23.266;2023-07-31T05:38:03;95128.78;;;35.62;38.74
10652;BME280;5374;42.742;23.266;2023-07-31T05:40:52;95136.63;;;35.10;39.05
10652;BME280;5374;42.742;23.266;2023-07-31T05:43:39;95114.66;;;34.35;39.54
10652;BME280;5374;42.742;23.266;2023-07-31T05:46:29;95053.81;;;32.56;42.41
10652;BME280;5374;42.742;23.266;2023-07-31T05:49:17;95056.00;;;33.49;41.79
10652;BME280;5374;42.742;23.266;2023-07-31T05:52:04;95119.31;;;34.42;40.96
10652;BME280;5374;42.742;23.266;2023-07-31T05:55:01;95105.56;;;34.72;39.82
10652;BME280;5374;42.742;23.266;2023-07-31T05:57:51;95125.06;;;35.19;38.89
10652;BME280;5374;42.742;23.266;2023-07-31T06:00:38;95045.34;;;34.63;38.50
10652;BME280;5374;42.742;23.266;2023-07-31T06:03:26;95051.06;;;34.49;37.75
10652;BME280;5374;42.742;23.266;2023-07-31T06:06:13;95056.03;;;34.27;38.87
10652;BME280;5374;42.742;23.266;2023-07-31T06:09:01;95133.88;;;34.76;38.94
10652;BME280;5374;42.742;23.266;2023-07-31T06:11:49;95132.38;;;34.72;38.38
10652;BME280;5374;42.742;23.266;2023-07-31T06:14:37;95121.63;;;34.09;39.57
10652;BME280;5374;42.742;23.266;2023-07-31T06:17:25;95114.38;;;33.85;39.31
10652;BME280;5374;42.742;23.266;2023-07-31T06:20:12;95122.44;;;33.58;40.55
10652;BME280;5374;42.742;23.266;2023-07-31T06:22:59;95129.31;;;33.28;41.42
10652;BME280;5374;42.742;23.266;2023-07-31T06:25:47;95108.47;;;33.27;41.14
10652;BME280;5374;42.742;23.266;2023-07-31T06:28:34;95114.69;;;32.62;41.21
10652;BME280;5374;42.742;23.266;2023-07-31T06:31:23;95132.09;;;32.23;42.61
10652;BME280;5374;42.742;23.266;2023-07-31T06:34:10;95141.00;;;32.59;43.74
10652;BME280;5374;42.742;23.266;2023-07-31T06:36:57;95137.09;;;32.60;41.69
10652;BME280;5374;42.742;23.266;2023-07-31T06:39:44;95143.13;;;31.84;42.26
10652;BME280;5374;42.742;23.266;2023-07-31T06:42:31;95144.25;;;31.30;43.87
10652;BME280;5374;42.742;23.266;2023-07-31T06:45:18;95156.28;;;30.90;45.08
10652;BME280;5374;42.742;23.266;2023-07-31T06:48:09;95143.34;;;30.87;45.89
10652;BME280;5374;42.742;23.266;2023-07-31T06:50:56;95150.50;;;31.16;45.84
10652;BME280;5374;42.742;23.266;2023-07-31T06:53:43;95151.34;;;31.67;44.58
10652;BME280;5374;42.742;23.266;2023-07-31T06:56:35;95152.91;;;31.92;43.63
10652;BME280;5374;42.742;23.266;2023-07-31T06:59:23;95136.44;;;31.92;43.53
10652;BME280;5374;42.742;23.266;2023-07-31T07:02:10;95117.56;;;32.09;42.23
10652;BME280;5374;42.742;23.266;2023-07-31T07:04:59;95142.66;;;32.43;41.31
10652;BME280;5374;42.742;23.266;2023-07-31T07:07:49;95131.31;;;32.30;42.01
10652;BME280;5374;42.742;23.266;2023-07-31T07:10:37;95126.09;;;32.60;41.62
10652;BME280;5374;42.742;23.266;2023-07-31T07:13:24;95126.47;;;32.66;40.67
10652;BME280;5374;42.742;23.266;2023-07-31T07:16:11;95119.72;;;32.85;41.02
10652;BME280;5374;42.742;23.266;2023-07-31T07:18:58;95124.44;;;32.88;41.31
10652;BME280;5374;42.742;23.266;2023-07-31T07:21:47;95098.13;;;32.80;39.96
10652;BME280;5374;42.742;23.266;2023-07-31T07:24:34;95118.00;;;33.12;39.68
10652;BME280;5374;42.742;23.266;2023-07-31T07:27:24;95108.41;;;33.38;39.02
10652;BME280;5374;42.742;23.266;2023-07-31T07:30:11;95104.38;;;33.53;38.91
10652;BME280;5374;42.742;23.266;2023-07-31T07:32:59;95120.88;;;34.02;38.93
10652;BME280;5374;42.742;23.266;2023-07-31T07:35:46;95120.84;;;33.57;37.99
10652;BME280;5374;42.742;23.266;2023-07-31T07:38:35;95128.75;;;33.55;37.92
10652;BME280;5374;42.742;23.266;2023-07-31T07:41:25;95123.06;;;33.80;38.05
10652;BME280;5374;42.742;23.266;2023-07-31T07:44:12;95112.38;;;34.26;37.76
10652;BME280;5374;42.742;23.266;2023-07-31T07:47:02;95113.38;;;34.43;36.88
10652;BME280;5374;42.742;23.266;2023-07-31T07:49:49;95122.38;;;34.51;36.37
10652;BME280;5374;42.742;23.266;2023-07-31T07:52:36;95118.09;;;34.05;36.25
10652;BME280;5374;42.742;23.266;2023-07-31T07:55:25;95113.81;;;34.01;37.43
10652;BME280;5374;42.742;23.266;2023-07-31T07:58:12;95126.44;;;34.39;37.42
10652;BME280;5374;42.742;23.266;2023-07-31T08:00:59;95142.84;;;34.53;36.70
10652;BME280;5374;42.742;23.266;2023-07-31T08:03:47;95136.81;;;33.83;36.83
10652;BME280;5374;42.742;23.266;2023-07-31T08:06:37;95145.09;;;33.76;38.47
10652;BME280;5374;42.742;23.266;2023-07-31T08:09:24;95133.50;;;33.51;38.42
10652;BME280;5374;42.742;23.266;2023-07-31T08:12:13;95139.63;;;33.69;37.28
10652;BME280;5374;42.742;23.266;2023-07-31T08:15:00;95113.34;;;33.61;37.83
10652;BME280;5374;42.742;23.266;2023-07-31T08:17:47;95137.66;;;33.73;37.59
10652;BME280;5374;42.742;23.266;2023-07-31T08:20:34;95131.72;;;33.75;37.84
10652;BME280;5374;42.742;23.266;2023-07-31T08:23:21;95131.22;;;33.90;37.92
10652;BME280;5374;42.742;23.266;2023-07-31T08:26:14;95140.38;;;33.77;36.69
10652;BME280;5374;42.742;23.266;2023-07-31T08:29:03;95135.06;;;33.52;37.74
10652;BME280;5374;42.742;23.266;2023-07-31T08:31:50;95131.88;;;33.57;38.01
10652;BME280;5374;42.742;23.266;2023-07-31T08:34:37;95120.09;;;33.53;37.83
10652;BME280;5374;42.742;23.266;2023-07-31T08:37:24;95131.75;;;33.71;37.93
10652;BME280;5374;42.742;23.266;2023-07-31T08:40:11;95135.16;;;33.89;37.56
10652;BME280;5374;42.742;23.266;2023-07-31T08:42:59;95123.91;;;34.14;36.99
10652;BME280;5374;42.742;23.266;2023-07-31T08:45:50;95127.56;;;34.04;37.17
10652;BME280;5374;42.742;23.266;2023-07-31T08:48:39;95137.34;;;33.64;36.63
10652;BME280;5374;42.742;23.266;2023-07-31T08:51:28;95126.31;;;33.64;36.72
10652;BME280;5374;42.742;23.266;2023-07-31T08:54:16;95116.16;;;33.54;36.93
10652;BME280;5374;42.742;23.266;2023-07-31T08:57:04;95129.50;;;33.59;36.33
10652;BME280;5374;42.742;23.266;2023-07-31T08:59:54;95125.91;;;33.66;37.07
10652;BME280;5374;42.742;23.266;2023-07-31T09:02:48;95129.44;;;33.66;37.73
10652;BME280;5374;42.742;23.266;2023-07-31T09:05:38;95131.31;;;33.80;37.49
10652;BME280;5374;42.742;23.266;2023-07-31T09:08:30;95119.94;;;33.71;36.88
10652;BME280;5374;42.742;23.266;2023-07-31T09:11:18;95112.34;;;33.41;37.34
10652;BME280;5374;42.742;23.266;2023-07-31T09:14:06;95129.00;;;33.12;38.67
10652;BME280;5374;42.742;23.266;2023-07-31T09:16:55;95111.22;;;33.24;37.98
10652;BME280;5374;42.742;23.266;2023-07-31T09:19:45;95100.06;;;33.49;38.22
10652;BME280;5374;42.742;23.266;2023-07-31T09:22:35;95100.78;;;33.60;37.91
10652;BME280;5374;42.742;23.266;2023-07-31T09:25:26;95102.63;;;33.70;38.13
10652;BME280;5374;42.742;23.266;2023-07-31T09:28:13;95098.84;;;33.53;37.81
10652;BME280;5374;42.742;23.266;2023-07-31T09:31:01;95093.28;;;33.64;37.89
10652;BME280;5374;42.742;23.266;2023-07-31T09:33:54;95081.38;;;33.71;37.59
10652;BME280;5374;42.742;23.266;2023-07-31T09:36:45;95077.63;;;33.50;37.22
10652;BME280;5374;42.742;23.266;2023-07-31T09:39:45;95087.44;;;33.55;37.45
10652;BME280;5374;42.742;23.266;2023-07-31T09:42:34;95094.91;;;33.54;36.67
10652;BME280;5374;42.742;23.266;2023-07-31T09:45:22;95095.84;;;33.37;35.81
10652;BME280;5374;42.742;23.266;2023-07-31T09:48:12;95092.53;;;32.98;37.05
10652;BME280;5374;42.742;23.266;2023-07-31T09:51:04;95095.88;;;32.53;37.35
10652;BME280;5374;42.742;23.266;2023-07-31T09:53:53;95090.03;;;32.44;37.79
10652;BME280;5374;42.742;23.266;2023-07-31T09:56:42;95085.16;;;32.77;38.19
10652;BME280;5374;42.742;23.266;2023-07-31T09:59:30;95083.91;;;32.95;38.35
10652;BME280;5374;42.742;23.266;2023-07-31T10:02:21;95079.38;;;33.23;37.05
10652;BME280;5374;42.742;23.266;2023-07-31T10:05:08;95086.41;;;33.35;37.71
10652;BME280;5374;42.742;23.266;2023-07-31T10:07:58;95069.69;;;33.59;35.48
10652;BME280;5374;42.742;23.266;2023-07-31T10:10:47;95090.44;;;33.71;35.71
10652;BME280;5374;42.742;23.266;2023-07-31T10:13:34;95087.41;;;34.03;35.58
10652;BME280;5374;42.742;23.266;2023-07-31T10:16:22;95077.41;;;33.79;34.22
10652;BME280;5374;42.742;23.266;2023-07-31T10:19:11;95076.19;;;33.35;34.93
10652;BME280;5374;42.742;23.266;2023-07-31T10:21:59;95076.34;;;33.10;36.16
10652;BME280;5374;42.742;23.266;2023-07-31T10:24:48;95076.72;;;33.12;36.62
10652;BME280;5374;42.742;23.266;2023-07-31T10:27:39;95049.72;;;32.97;35.42
10652;BME280;5374;42.742;23.266;2023-07-31T10:30:28;95071.09;;;33.34;35.33
10652;BME280;5374;42.742;23.266;2023-07-31T10:33:16;95079.34;;;33.34;36.20
10652;BME280;5374;42.742;23.266;2023-07-31T10:36:23;95041.84;;;32.99;35.68
10652;BME280;5374;42.742;23.266;2023-07-31T10:39:34;95061.19;;;33.43;35.09
10652;BME280;5374;42.742;23.266;2023-07-31T10:42:27;95069.28;;;33.61;35.89
10652;BME280;5374;42.742;23.266;2023-07-31T10:45:24;95051.88;;;33.71;34.86
10652;BME280;5374;42.742;23.266;2023-07-31T10:48:14;95062.41;;;33.83;33.99
10652;BME280;5374;42.742;23.266;2023-07-31T10:51:12;95033.72;;;33.81;34.26
10652;BME280;5374;42.742;23.266;2023-07-31T10:54:13;95066.25;;;33.93;33.79
10652;BME280;5374;42.742;23.266;2023-07-31T10:57:26;95025.06;;;33.34;33.62
10652;BME280;5374;42.742;23.266;2023-07-31T11:00:30;95053.34;;;33.38;34.15
10652;BME280;5374;42.742;23.266;2023-07-31T11:03:19;95050.44;;;33.56;33.54
10652;BME280;5374;42.742;23.266;2023-07-31T11:06:08;95043.75;;;33.57;32.82
10652;BME280;5374;42.742;23.266;2023-07-31T11:08:58;95052.31;;;33.66;33.66
10652;BME280;5374;42.742;23.266;2023-07-31T11:11:54;95045.97;;;33.69;32.80
10652;BME280;5374;42.742;23.266;2023-07-31T11:14:42;95048.44;;;33.60;32.20
10652;BME280;5374;42.742;23.266;2023-07-31T11:17:31;95045.34;;;33.54;32.76
10652;BME280;5374;42.742;23.266;2023-07-31T11:20:18;95048.72;;;33.69;32.24
10652;BME280;5374;42.742;23.266;2023-07-31T11:23:08;95025.13;;;33.27;32.71
10652;BME280;5374;42.742;23.266;2023-07-31T11:25:59;95045.69;;;33.08;34.12
10652;BME280;5374;42.742;23.266;2023-07-31T11:28:51;95037.38;;;32.49;34.95
10652;BME280;5374;42.742;23.266;2023-07-31T11:31:42;95042.09;;;32.45;36.03
10652;BME280;5374;42.742;23.266;2023-07-31T11:34:30;95038.81;;;32.72;35.81
10652;BME280;5374;42.742;23.266;2023-07-31T11:37:18;95010.66;;;32.50;34.29
10652;BME280;5374;42.742;23.266;2023-07-31T11:40:07;95032.56;;;32.68;35.10
10652;BME280;5374;42.742;23.266;2023-07-31T11:42:55;95037.56;;;32.87;35.44
10652;BME280;5374;42.742;23.266;2023-07-31T11:45:46;95042.63;;;32.95;35.36
10652;BME280;5374;42.742;23.266;2023-07-31T11:48:37;95042.31;;;32.79;35.92
10652;BME280;5374;42.742;23.266;2023-07-31T11:51:27;95015.28;;;32.63;36.47
10652;BME280;5374;42.742;23.266;2023-07-31T11:54:16;95027.06;;;32.68;35.86
10652;BME280;5374;42.742;23.266;2023-07-31T11:57:04;95021.84;;;32.87;34.93
10652;BME280;5374;42.742;23.266;2023-07-31T11:59:52;95020.72;;;32.78;35.96
10652;BME280;5374;42.742;23.266;2023-07-31T12:02:41;95015.63;;;32.76;36.25
10652;BME280;5374;42.742;23.266;2023-07-31T12:05:31;95017.91;;;32.92;35.79
10652;BME280;5374;42.742;23.266;2023-07-31T12:08:20;95016.84;;;32.65;35.61
10652;BME280;5374;42.742;23.266;2023-07-31T12:11:09;95017.16;;;32.81;35.84
10652;BME280;5374;42.742;23.266;2023-07-31T12:13:56;95011.22;;;32.93;35.02
10652;BME280;5374;42.742;23.266;2023-07-31T12:16:43;95012.38;;;32.95;34.13
10652;BME280;5374;42.742;23.266;2023-07-31T12:19:31;95008.47;;;32.93;34.17
10652;BME280;5374;42.742;23.266;2023-07-31T12:22:20;95002.66;;;32.77;34.65
10652;BME280;5374;42.742;23.266;2023-07-31T12:25:15;94986.59;;;32.65;34.52
10652;BME280;5374;42.742;23.266;2023-07-31T12:28:06;95002.25;;;32.78;34.73
10652;BME280;5374;42.742;23.266;2023-07-31T12:30:57;94993.22;;;32.78;34.14
10652;BME280;5374;42.742;23.266;2023-07-31T12:33:46;94990.41;;;32.85;34.67
10652;BME280;5374;42.742;23.266;2023-07-31T12:36:35;95001.44;;;32.81;35.51
10652;BME280;5374;42.742;23.266;2023-07-31T12:39:22;95005.78;;;32.79;35.21
10652;BME280;5374;42.742;23.266;2023-07-31T12:42:11;95001.03;;;32.83;34.86
10652;BME280;5374;42.742;23.266;2023-07-31T12:44:59;94997.31;;;32.45;35.38
10652;BME280;5374;42.742;23.266;2023-07-31T12:47:46;94988.81;;;32.14;35.22
10652;BME280;5374;42.742;23.266;2023-07-31T12:50:35;94995.91;;;32.05;36.41
10652;BME280;5374;42.742;23.266;2023-07-31T12:53:28;94990.84;;;31.96;36.94
10652;BME280;5374;42.742;23.266;2023-07-31T12:56:16;94990.06;;;31.88;36.44
10652;BME280;5374;42.742;23.266;2023-07-31T12:59:06;94981.75;;;32.10;35.67
10652;BME280;5374;42.742;23.266;2023-07-31T13:01:53;94985.56;;;32.44;34.67
10652;BME280;5374;42.742;23.266;2023-07-31T13:04:40;94987.22;;;32.27;34.57
10652;BME280;5374;42.742;23.266;2023-07-31T13:07:27;94982.94;;;32.09;34.56
10652;BME280;5374;42.742;23.266;2023-07-31T13:10:15;94984.16;;;31.97;34.38
10652;BME280;5374;42.742;23.266;2023-07-31T13:13:11;94979.44;;;32.08;35.15
10652;BME280;5374;42.742;23.266;2023-07-31T13:16:01;94982.59;;;31.92;35.35
10652;BME280;5374;42.742;23.266;2023-07-31T13:18:50;94985.03;;;31.69;35.77
10652;BME280;5374;42.742;23.266;2023-07-31T13:21:39;94973.28;;;31.51;35.78
10652;BME280;5374;42.742;23.266;2023-07-31T13:24:26;94983.50;;;31.40;36.21
10652;BME280;5374;42.742;23.266;2023-07-31T13:27:14;94983.91;;;31.38;37.57
10652;BME280;5374;42.742;23.266;2023-07-31T13:30:07;94983.50;;;31.40;36.72
10652;BME280;5374;42.742;23.266;2023-07-31T13:32:58;94983.50;;;31.25;36.47
10652;BME280;5374;42.742;23.266;2023-07-31T13:35:45;94979.63;;;31.12;36.47
10652;BME280;5374;42.742;23.266;2023-07-31T13:38:32;94986.66;;;31.38;36.20
10652;BME280;5374;42.742;23.266;2023-07-31T13:41:19;94979.56;;;31.58;36.04
10652;BME280;5374;42.742;23.266;2023-07-31T13:44:06;94968.97;;;31.60;34.80
10652;BME280;5374;42.742;23.266;2023-07-31T13:46:54;94974.81;;;31.80;35.86
10652;BME280;5374;42.742;23.266;2023-07-31T13:49:43;94985.44;;;31.68;36.24
10652;BME280;5374;42.742;23.266;2023-07-31T13:52:30;94977.94;;;31.82;36.00
10652;BME280;5374;42.742;23.266;2023-07-31T13:55:20;94967.72;;;31.86;35.39
10652;BME280;5374;42.742;23.266;2023-07-31T13:58:07;94975.59;;;31.84;35.63
10652;BME280;5374;42.742;23.266;2023-07-31T14:00:54;94979.88;;;31.89;36.62
10652;BME280;5374;42.742;23.266;2023-07-31T14:03:41;94980.31;;;31.73;36.36
10652;BME280;5374;42.742;23.266;2023-07-31T14:06:30;94981.13;;;31.45;36.86
10652;BME280;5374;42.742;23.266;2023-07-31T14:09:17;94971.38;;;31.34;37.12
10652;BME280;5374;42.742;23.266;2023-07-31T14:12:05;94981.56;;;31.37;37.39
10652;BME280;5374;42.742;23.266;2023-07-31T14:14:52;94983.47;;;31.47;37.09
10652;BME280;5374;42.742;23.266;2023-07-31T14:17:39;94965.03;;;31.61;36.71
10652;BME280;5374;42.742;23.266;2023-07-31T14:20:26;94972.06;;;31.80;37.54
10652;BME280;5374;42.742;23.266;2023-07-31T14:23:15;94972.50;;;31.57;37.49
10652;BME280;5374;42.742;23.266;2023-07-31T14:26:03;94970.16;;;31.56;37.98
10652;BME280;5374;42.742;23.266;2023-07-31T14:28:50;94976.03;;;31.51;38.04
10652;BME280;5374;42.742;23.266;2023-07-31T14:31:37;94974.84;;;31.48;37.55
10652;BME280;5374;42.742;23.266;2023-07-31T14:34:24;94966.66;;;31.31;38.33
10652;BME280;5374;42.742;23.266;2023-07-31T14:37:11;94973.31;;;31.26;38.64
10652;BME280;5374;42.742;23.266;2023-07-31T14:40:00;94939.59;;;31.08;38.45
10652;BME280;5374;42.742;23.266;2023-07-31T14:42:47;94970.56;;;31.37;38.94
10652;BME280;5374;42.742;23.266;2023-07-31T14:45:34;94965.84;;;31.41;38.69
10652;BME280;5374;42.742;23.266;2023-07-31T14:48:21;94950.56;;;31.40;38.79
10652;BME280;5374;42.742;23.266;2023-07-31T14:51:15;94963.13;;;31.26;39.40